Time;durP1;ratioP1;P1;durP2;ratioP2;P2;SDS_P1;SDS_P2;PMS_P1;PMS_P2;Temp;Humidity;BMP_temperature;BMP_pressure;BME280_temperature;BME280_humidity;BME280_pressure;Samples;Min_cycle;Max_cycle;Signal;HPM_P1;HPM_P2
2022/04/05 00:01:47;;;;;;;7.37;4.83;;;1.80;94.80;;;;;;4162052;28;20204;-74
2022/04/05 00:03:48;;;;;;;6.60;4.47;;;1.90;94.80;;;;;;4163920;28;20260;-74
2022/04/05 00:05:48;;;;;;;7.00;4.80;;;1.90;93.90;;;;;;4163996;28;20427;-74
2022/04/05 00:07:49;;;;;;;8.20;4.83;;;1.90;94.20;;;;;;4163956;28;20181;-74
2022/04/05 00:09:50;;;;;;;5.57;3.87;;;2.00;93.90;;;;;;4163688;28;20597;-74
2022/04/05 00:11:50;;;;;;;8.33;5.67;;;1.90;93.80;;;;;;4161809;28;20280;-74
2022/04/05 00:13:51;;;;;;;6.53;4.77;;;2.00;93.90;;;;;;4162392;28;20869;-74
2022/04/05 00:15:52;;;;;;;7.50;4.40;;;2.10;93.90;;;;;;4163225;28;20205;-74
2022/04/05 00:17:53;;;;;;;6.90;4.70;;;2.10;93.30;;;;;;4162379;28;20185;-74
2022/04/05 00:19:53;;;;;;;6.03;4.30;;;2.00;93.70;;;;;;4163510;28;20182;-74
2022/04/05 00:21:54;;;;;;;6.90;4.93;;;2.00;93.50;;;;;;4162953;28;20185;-74
2022/04/05 00:23:55;;;;;;;5.73;4.37;;;2.00;93.80;;;;;;4163554;28;20185;-74
2022/04/05 00:25:55;;;;;;;5.77;4.77;;;2.00;93.80;;;;;;4163505;28;20211;-74
2022/04/05 00:27:56;;;;;;;5.93;4.37;;;2.00;94.00;;;;;;4162493;28;20174;-74
2022/04/05 00:29:59;;;;;;;5.80;4.03;;;2.00;93.70;;;;;;4163836;28;20188;-74
2022/04/05 00:31:59;;;;;;;6.63;4.77;;;2.10;94.10;;;;;;4162668;28;20238;-74
2022/04/05 00:34:00;;;;;;;7.23;5.33;;;2.10;93.60;;;;;;4163656;28;20408;-75
2022/04/05 00:36:01;;;;;;;6.53;4.60;;;2.10;93.60;;;;;;4163066;28;20224;-74
2022/04/05 00:38:01;;;;;;;6.27;4.87;;;2.00;93.80;;;;;;4161604;28;20554;-74
2022/04/05 00:40:05;;;;;;;6.07;4.67;;;2.10;94.00;;;;;;4163248;28;20173;-74
2022/04/05 00:42:09;;;;;;;7.43;4.67;;;2.10;93.80;;;;;;4161364;28;20177;-74
2022/04/05 00:44:10;;;;;;;6.73;4.90;;;2.10;94.20;;;;;;4163310;28;20423;-74
2022/04/05 00:46:11;;;;;;;5.97;4.77;;;2.10;94.10;;;;;;4163479;28;20443;-74
2022/04/05 00:48:46;;;;;;;9.73;4.60;;;2.10;93.70;;;;;;4163367;28;20211;-75
2022/04/05 00:50:47;;;;;;;6.67;4.53;;;2.10;93.90;;;;;;4163200;28;20169;-74
2022/04/05 00:52:49;;;;;;;6.87;4.60;;;2.20;93.50;;;;;;4162556;28;20917;-74
2022/04/05 00:54:52;;;;;;;6.67;4.40;;;2.30;93.20;;;;;;4161816;28;20177;-74
2022/04/05 00:56:56;;;;;;;7.47;4.53;;;2.10;93.00;;;;;;4162827;28;20464;-74
2022/04/05 00:59:00;;;;;;;8.00;4.67;;;2.20;92.90;;;;;;4161807;28;20423;-74
2022/04/05 01:01:02;;;;;;;6.10;4.30;;;2.20;92.70;;;;;;4163097;28;20907;-74
2022/04/05 01:03:03;;;;;;;5.03;4.13;;;2.20;92.60;;;;;;4161703;28;20416;-74
2022/04/05 01:05:06;;;;;;;5.70;4.17;;;2.20;92.80;;;;;;4161678;28;20420;-74
2022/04/05 01:07:11;;;;;;;6.10;4.80;;;2.30;92.30;;;;;;4161494;28;20461;-74
2022/04/05 01:09:12;;;;;;;5.90;4.00;;;2.40;92.10;;;;;;4161792;28;20432;-74
2022/04/05 01:11:12;;;;;;;5.50;3.77;;;2.40;91.60;;;;;;4161053;28;20463;-75
2022/04/05 01:13:13;;;;;;;6.83;4.40;;;2.40;91.00;;;;;;4162827;28;20181;-74
2022/04/05 01:15:14;;;;;;;7.27;4.10;;;2.40;90.50;;;;;;4162422;28;20224;-74
2022/04/05 01:17:16;;;;;;;6.53;4.70;;;2.40;90.70;;;;;;4162610;28;20216;-74
2022/04/05 01:19:16;;;;;;;6.00;4.50;;;2.40;90.80;;;;;;4161491;28;20207;-74
2022/04/05 01:21:18;;;;;;;5.03;4.20;;;2.50;90.70;;;;;;4160859;28;20447;-74
2022/04/05 01:23:22;;;;;;;6.50;4.23;;;2.60;90.70;;;;;;4161288;28;20861;-74
2022/04/05 01:25:23;;;;;;;5.80;4.33;;;2.50;90.20;;;;;;4161424;28;20424;-74
2022/04/05 01:27:27;;;;;;;5.53;4.57;;;2.50;90.40;;;;;;4162542;28;20473;-74
2022/04/05 01:29:28;;;;;;;6.67;4.13;;;2.40;90.10;;;;;;4161317;28;20722;-74
2022/04/05 01:31:29;;;;;;;7.07;4.60;;;2.40;90.20;;;;;;4160534;28;20451;-74
2022/04/05 01:33:30;;;;;;;5.77;4.00;;;2.40;90.40;;;;;;4162545;28;20443;-74
2022/04/05 01:35:30;;;;;;;8.03;5.37;;;2.40;90.40;;;;;;4161098;28;20189;-73
2022/04/05 01:37:32;;;;;;;5.50;4.37;;;2.40;90.50;;;;;;4161491;28;20239;-74
2022/04/05 01:39:35;;;;;;;7.83;4.23;;;2.40;90.20;;;;;;4161133;28;20177;-74
2022/04/05 01:41:36;;;;;;;5.80;3.97;;;2.30;90.20;;;;;;4161856;28;20423;-73
2022/04/05 01:43:36;;;;;;;4.77;3.93;;;2.40;90.10;;;;;;4161182;28;20446;-74
2022/04/05 01:45:37;;;;;;;7.10;4.73;;;2.40;90.00;;;;;;4161027;28;20187;-74
2022/04/05 01:47:39;;;;;;;6.97;4.33;;;2.30;90.30;;;;;;4162374;28;20180;-74
2022/04/05 01:49:45;;;;;;;4.70;3.90;;;2.30;90.60;;;;;;4161494;28;20181;-74
2022/04/05 01:51:47;;;;;;;7.43;4.50;;;2.30;90.80;;;;;;4161752;28;20419;-74
2022/04/05 01:53:48;;;;;;;7.00;4.40;;;2.30;90.90;;;;;;4160945;28;20958;-74
2022/04/05 01:55:48;;;;;;;6.13;4.40;;;2.30;90.70;;;;;;4160918;28;20431;-75
2022/04/05 01:57:49;;;;;;;4.63;3.73;;;2.30;90.50;;;;;;4162391;28;20205;-74
2022/04/05 01:59:50;;;;;;;5.73;4.27;;;2.30;90.70;;;;;;4162248;28;20172;-74
2022/04/05 02:01:52;;;;;;;6.10;4.50;;;2.30;90.70;;;;;;4161840;28;20252;-74
2022/04/05 02:03:53;;;;;;;5.50;4.37;;;2.30;90.40;;;;;;4160953;28;20275;-74
2022/04/05 02:05:53;;;;;;;5.50;4.23;;;2.40;90.30;;;;;;4161933;28;20436;-74
2022/04/05 02:07:54;;;;;;;8.10;4.53;;;2.30;90.30;;;;;;4160674;28;20180;-75
2022/04/05 02:09:55;;;;;;;5.97;4.07;;;2.30;90.40;;;;;;4160748;28;20181;-74
2022/04/05 02:11:55;;;;;;;8.33;5.37;;;2.30;90.30;;;;;;4161391;28;20185;-74
2022/04/05 02:13:56;;;;;;;6.80;4.10;;;2.30;90.80;;;;;;4162081;28;20180;-74
2022/04/05 02:16:02;;;;;;;4.10;3.63;;;2.30;90.40;;;;;;4161850;28;20216;-74
2022/04/05 02:18:18;;;;;;;5.50;4.23;;;2.40;89.80;;;;;;4162151;28;20621;-73
2022/04/05 02:20:19;;;;;;;5.83;4.30;;;2.30;90.00;;;;;;4160643;28;20423;-74
2022/04/05 02:22:19;;;;;;;5.03;3.97;;;2.30;90.20;;;;;;4161327;28;20510;-74
2022/04/05 02:24:20;;;;;;;7.17;4.27;;;2.40;89.50;;;;;;4162048;28;20208;-74
2022/04/05 02:26:21;;;;;;;7.17;4.30;;;2.40;88.00;;;;;;4161888;28;20235;-74
2022/04/05 02:28:22;;;;;;;6.83;4.63;;;2.40;88.70;;;;;;4160572;28;20276;-74
2022/04/05 02:30:23;;;;;;;5.10;4.10;;;2.40;88.60;;;;;;4162067;28;20527;-74
2022/04/05 02:32:23;;;;;;;4.77;4.00;;;2.40;88.90;;;;;;4160870;28;20246;-74
2022/04/05 02:34:24;;;;;;;5.87;4.20;;;2.50;88.00;;;;;;4161927;28;20178;-74
2022/04/05 02:36:25;;;;;;;7.20;4.30;;;2.50;87.80;;;;;;4161831;28;20269;-74
2022/04/05 02:38:26;;;;;;;7.17;4.33;;;2.50;88.10;;;;;;4161384;28;20184;-74
2022/04/05 02:40:27;;;;;;;6.13;4.10;;;2.60;87.00;;;;;;4161883;28;20184;-74
2022/04/05 02:42:28;;;;;;;6.20;4.37;;;2.50;88.50;;;;;;4160018;28;20428;-74
2022/04/05 02:44:28;;;;;;;5.73;4.33;;;2.40;87.70;;;;;;4161868;28;20474;-74
2022/04/05 02:46:29;;;;;;;5.27;3.87;;;2.40;87.50;;;;;;4161689;28;20211;-74
2022/04/05 02:48:30;;;;;;;7.27;4.27;;;2.50;88.40;;;;;;4161848;28;20185;-74
2022/04/05 02:50:31;;;;;;;7.10;4.43;;;2.50;87.30;;;;;;4159267;28;20185;-74
2022/04/05 02:52:32;;;;;;;7.30;4.67;;;2.50;86.60;;;;;;4161294;28;21234;-74
2022/04/05 02:54:33;;;;;;;5.80;4.07;;;2.60;88.00;;;;;;4161687;28;20181;-74
2022/04/05 02:56:34;;;;;;;4.63;3.80;;;2.60;87.10;;;;;;4144254;28;20221;-74
2022/04/05 02:58:36;;;;;;;8.87;4.57;;;2.60;86.40;;;;;;4161626;28;20178;-74
2022/04/05 03:00:37;;;;;;;7.80;4.73;;;2.50;87.80;;;;;;4160394;28;20802;-74
2022/04/05 03:02:39;;;;;;;6.70;4.27;;;2.50;87.50;;;;;;4162640;28;20469;-74
2022/04/05 03:04:40;;;;;;;7.30;4.30;;;2.40;88.60;;;;;;4163497;28;20220;-74
2022/04/05 03:06:41;;;;;;;6.03;3.90;;;2.40;87.40;;;;;;4164856;28;20908;-74
2022/04/05 03:08:41;;;;;;;6.37;4.60;;;2.50;88.10;;;;;;4164716;28;20558;-74
2022/04/05 03:10:42;;;;;;;5.07;4.13;;;2.50;86.70;;;;;;4164840;28;20215;-74
2022/04/05 03:12:42;;;;;;;5.90;4.00;;;2.40;87.30;;;;;;4164179;28;20180;-74
2022/04/05 03:14:43;;;;;;;4.17;3.37;;;2.50;87.30;;;;;;4163661;28;20223;-74
2022/04/05 03:16:44;;;;;;;4.90;3.70;;;2.50;87.10;;;;;;4164541;28;20213;-74
2022/04/05 03:18:46;;;;;;;5.97;3.83;;;2.50;86.60;;;;;;4164850;28;20199;-74
2022/04/05 03:20:46;;;;;;;5.83;4.17;;;2.50;86.80;;;;;;4164813;28;20188;-74
2022/04/05 03:22:47;;;;;;;5.77;3.97;;;2.50;86.00;;;;;;4162823;28;20416;-74
2022/04/05 03:24:47;;;;;;;4.90;3.80;;;2.50;87.20;;;;;;4164458;28;20181;-74
2022/04/05 03:26:48;;;;;;;10.43;4.10;;;2.50;86.70;;;;;;4164715;28;20212;-74
2022/04/05 03:28:49;;;;;;;5.23;3.87;;;2.50;86.40;;;;;;4163117;28;20196;-74
2022/04/05 03:30:49;;;;;;;4.23;3.30;;;2.60;85.80;;;;;;4164740;28;20218;-74
2022/04/05 03:32:50;;;;;;;8.27;4.27;;;2.60;85.50;;;;;;4162244;28;20192;-74
2022/04/05 03:34:52;;;;;;;5.73;4.03;;;2.60;86.10;;;;;;4179546;28;20188;-74
2022/04/05 03:36:53;;;;;;;4.93;3.63;;;2.60;85.20;;;;;;4163445;28;20618;-74
2022/04/05 03:38:54;;;;;;;5.40;3.30;;;2.70;85.20;;;;;;4164484;28;21005;-74
2022/04/05 03:40:55;;;;;;;7.67;4.20;;;2.70;85.00;;;;;;4164671;28;20416;-74
2022/04/05 03:42:55;;;;;;;5.60;4.03;;;2.70;85.40;;;;;;4163783;28;20181;-74
2022/04/05 03:44:56;;;;;;;3.90;3.37;;;2.70;86.10;;;;;;4164136;28;20213;-73
2022/04/05 03:46:57;;;;;;;5.83;4.03;;;2.70;86.60;;;;;;4162889;28;20205;-74
2022/04/05 03:48:58;;;;;;;5.70;3.50;;;2.70;86.50;;;;;;4164225;28;20188;-74
2022/04/05 03:50:59;;;;;;;6.83;3.83;;;2.60;86.20;;;;;;4162776;28;20424;-73
2022/04/05 03:53:00;;;;;;;5.53;3.63;;;2.60;87.30;;;;;;4162477;28;20431;-74
2022/04/05 03:55:00;;;;;;;4.47;3.60;;;2.60;86.80;;;;;;4162970;28;20189;-74
2022/04/05 03:57:01;;;;;;;5.13;3.67;;;2.60;87.10;;;;;;4162793;28;20239;-73
2022/04/05 03:59:02;;;;;;;5.37;3.93;;;2.60;87.10;;;;;;4164182;28;20187;-74
2022/04/05 04:01:03;;;;;;;6.13;3.70;;;2.60;87.30;;;;;;4163667;28;20245;-74
2022/04/05 04:03:04;;;;;;;4.73;3.60;;;2.70;87.40;;;;;;4163940;28;20412;-74
2022/04/05 04:05:05;;;;;;;3.90;3.20;;;2.60;87.60;;;;;;4163135;28;20833;-74
2022/04/05 04:07:06;;;;;;;5.47;3.90;;;2.60;88.60;;;;;;4162331;28;20727;-74
2022/04/05 04:09:06;;;;;;;5.00;3.67;;;2.60;88.80;;;;;;4163474;28;20436;-74
2022/04/05 04:11:07;;;;;;;3.80;3.13;;;2.70;88.80;;;;;;4161599;28;20212;-73
2022/04/05 04:13:08;;;;;;;4.57;3.43;;;2.70;87.90;;;;;;4162589;28;20212;-73
2022/04/05 04:15:10;;;;;;;5.37;3.47;;;2.70;89.10;;;;;;4163541;28;20592;-74
2022/04/05 04:17:10;;;;;;;7.23;4.03;;;2.60;89.40;;;;;;4145592;28;20929;-74
2022/04/05 04:19:11;;;;;;;5.30;3.40;;;2.60;90.00;;;;;;4163550;28;20470;-74
2022/04/05 04:21:12;;;;;;;6.67;3.73;;;2.60;90.20;;;;;;4162955;28;20177;-74
2022/04/05 04:23:12;;;;;;;5.57;3.70;;;2.60;90.60;;;;;;4163338;28;20262;-74
2022/04/05 04:25:13;;;;;;;5.07;4.03;;;2.50;90.90;;;;;;4163159;28;20219;-74
2022/04/05 04:27:14;;;;;;;5.90;3.90;;;2.50;90.80;;;;;;4161912;28;20226;-73
2022/04/05 04:29:14;;;;;;;6.50;3.50;;;2.40;91.50;;;;;;4161837;28;20298;-74
2022/04/05 04:31:15;;;;;;;6.73;5.17;;;2.30;92.00;;;;;;4164798;28;20178;-75
2022/04/05 04:33:16;;;;;;;5.67;4.53;;;2.40;92.30;;;;;;4165034;28;20208;-73
2022/04/05 04:35:17;;;;;;;9.93;7.40;;;2.30;92.50;;;;;;4164917;28;20224;-73
2022/04/05 04:37:17;;;;;;;5.13;3.70;;;2.30;93.00;;;;;;4166853;28;20327;-74
2022/04/05 04:39:18;;;;;;;4.83;4.30;;;2.30;93.20;;;;;;4166909;28;20256;-73
2022/04/05 04:41:21;;;;;;;4.83;3.53;;;2.20;93.70;;;;;;4165178;28;20191;-74
2022/04/05 04:43:24;;;;;;;5.43;4.00;;;2.20;94.00;;;;;;4166879;28;20561;-74
2022/04/05 04:45:28;;;;;;;4.70;3.90;;;2.20;94.20;;;;;;4166835;28;20443;-74
2022/04/05 04:47:29;;;;;;;7.13;3.70;;;2.20;94.80;;;;;;4167268;28;20443;-75
2022/04/05 04:49:30;;;;;;;6.30;4.07;;;2.20;94.40;;;;;;4165892;28;21124;-74
2022/04/05 04:51:30;;;;;;;3.53;3.00;;;2.20;94.70;;;;;;4166307;28;20189;-73
2022/04/05 04:53:31;;;;;;;5.03;3.80;;;2.20;94.50;;;;;;4149500;28;20260;-73
2022/04/05 04:55:32;;;;;;;5.50;4.20;;;2.20;94.30;;;;;;4165455;28;20243;-74
2022/04/05 04:57:33;;;;;;;6.10;4.13;;;2.30;94.90;;;;;;4166104;28;20255;-74
2022/04/05 04:59:34;;;;;;;7.07;4.00;;;2.30;94.00;;;;;;4165418;28;20181;-74
2022/04/05 05:01:34;;;;;;;6.07;3.20;;;2.40;93.40;;;;;;4166344;28;20629;-74
2022/04/05 05:03:35;;;;;;;3.87;3.10;;;2.40;93.50;;;;;;4167076;28;20177;-74
2022/04/05 05:05:36;;;;;;;5.00;3.43;;;2.40;93.20;;;;;;4165434;28;20216;-73
2022/04/05 05:07:36;;;;;;;8.00;3.63;;;2.50;93.00;;;;;;4165143;28;20201;-74
2022/04/05 05:09:37;;;;;;;5.47;3.10;;;2.50;93.00;;;;;;4166802;28;20212;-74
2022/04/05 05:11:38;;;;;;;4.50;3.17;;;2.60;93.00;;;;;;4164517;28;20188;-74
2022/04/05 05:13:38;;;;;;;5.27;3.10;;;2.70;92.60;;;;;;4164978;28;20180;-74
2022/04/05 05:15:39;;;;;;;3.67;2.60;;;2.70;92.90;;;;;;4165216;28;20188;-74
2022/04/05 05:17:40;;;;;;;4.90;3.33;;;2.70;92.60;;;;;;4166219;28;20208;-74
2022/04/05 05:19:41;;;;;;;6.23;3.50;;;2.80;92.50;;;;;;4165059;28;20644;-74
2022/04/05 05:21:42;;;;;;;5.37;3.43;;;2.80;92.30;;;;;;4164648;28;20195;-74
2022/04/05 05:23:43;;;;;;;4.90;3.83;;;2.80;92.70;;;;;;4165095;28;20478;-74
2022/04/05 05:25:43;;;;;;;5.70;3.37;;;2.80;92.80;;;;;;4164912;28;20192;-74
2022/04/05 05:27:44;;;;;;;5.67;3.03;;;2.80;92.60;;;;;;4166264;28;20850;-74
2022/04/05 05:29:45;;;;;;;6.33;3.17;;;2.90;92.20;;;;;;4166295;28;20181;-74
2022/04/05 05:31:45;;;;;;;5.47;3.60;;;3.00;92.00;;;;;;4164288;28;20220;-74
2022/04/05 05:33:46;;;;;;;5.63;3.50;;;3.00;92.10;;;;;;4163283;28;20193;-74
2022/04/05 05:35:47;;;;;;;6.87;3.90;;;2.90;92.50;;;;;;4161969;28;20177;-74
2022/04/05 05:37:50;;;;;;;6.70;3.50;;;3.00;92.40;;;;;;4162437;28;20248;-74
2022/04/05 05:39:51;;;;;;;4.70;2.87;;;2.90;92.90;;;;;;4160538;28;20915;-74
2022/04/05 05:41:51;;;;;;;4.03;2.33;;;2.90;92.60;;;;;;4161299;28;20439;-74
2022/04/05 05:43:52;;;;;;;4.63;3.53;;;3.00;92.20;;;;;;4160937;28;20181;-74
2022/04/05 05:45:53;;;;;;;3.93;2.90;;;3.00;92.50;;;;;;4162135;28;20562;-74
2022/04/05 05:47:54;;;;;;;5.53;3.00;;;3.00;92.60;;;;;;4162240;28;20185;-74
2022/04/05 05:49:54;;;;;;;5.50;3.30;;;3.00;92.70;;;;;;4160566;28;20181;-74
2022/04/05 05:51:55;;;;;;;7.00;3.30;;;3.10;92.70;;;;;;4160188;28;20420;-74
2022/04/05 05:53:56;;;;;;;4.70;3.57;;;3.10;92.60;;;;;;4162141;28;20173;-75
2022/04/05 05:55:57;;;;;;;7.63;3.93;;;3.10;92.70;;;;;;4161918;28;20203;-74
2022/04/05 05:57:58;;;;;;;5.47;3.20;;;3.10;92.80;;;;;;4162110;28;20194;-74
2022/04/05 05:59:58;;;;;;;5.73;3.30;;;3.20;93.00;;;;;;4160821;28;20181;-74
2022/04/05 06:01:59;;;;;;;4.33;2.77;;;3.20;92.70;;;;;;4159922;28;20186;-74
2022/04/05 06:04:00;;;;;;;5.07;2.83;;;3.20;92.70;;;;;;4162025;28;20213;-74
2022/04/05 06:06:01;;;;;;;5.83;3.77;;;3.20;92.80;;;;;;4161402;28;20201;-74
2022/04/05 06:08:04;;;;;;;4.60;3.03;;;3.30;92.70;;;;;;4162158;28;20575;-74
2022/04/05 06:10:07;;;;;;;5.57;3.73;;;3.30;92.70;;;;;;4160594;28;20456;-74
2022/04/05 06:12:08;;;;;;;4.47;3.13;;;3.50;92.40;;;;;;4159922;28;20828;-74
2022/04/05 06:14:08;;;;;;;6.83;3.70;;;3.40;92.20;;;;;;4162031;28;20934;-74
2022/04/05 06:16:09;;;;;;;4.87;3.37;;;3.40;92.80;;;;;;4160646;28;20476;-74
2022/04/05 06:18:10;;;;;;;4.73;3.20;;;3.40;92.40;;;;;;4160298;28;20185;-74
2022/04/05 06:20:13;;;;;;;6.77;3.47;;;3.40;92.30;;;;;;4160693;28;20194;-74
2022/04/05 06:22:14;;;;;;;7.00;3.30;;;3.50;92.80;;;;;;4160048;28;20237;-74
2022/04/05 06:24:14;;;;;;;5.57;3.03;;;3.60;92.10;;;;;;4161704;28;20434;-74
2022/04/05 06:26:15;;;;;;;4.00;2.77;;;3.70;91.50;;;;;;4160751;28;20750;-73
2022/04/05 06:28:18;;;;;;;5.53;3.37;;;3.70;91.70;;;;;;4161740;28;20194;-74
2022/04/05 06:30:19;;;;;;;6.17;3.30;;;3.60;91.90;;;;;;4161543;28;20194;-74
2022/04/05 06:32:19;;;;;;;4.77;3.40;;;3.70;91.60;;;;;;4159855;28;20441;-74
2022/04/05 06:34:21;;;;;;;4.13;2.90;;;3.70;91.90;;;;;;4161770;28;20429;-73
2022/04/05 06:36:21;;;;;;;6.30;2.53;;;3.80;91.30;;;;;;4162952;28;20318;-74
2022/04/05 06:38:23;;;;;;;4.10;2.80;;;3.90;91.60;;;;;;4163952;28;20437;-74
2022/04/05 06:40:23;;;;;;;4.73;3.07;;;4.00;91.00;;;;;;4163768;28;20182;-74
2022/04/05 06:42:25;;;;;;;4.40;2.80;;;4.00;91.30;;;;;;4163323;28;20772;-74
2022/04/05 06:44:26;;;;;;;4.73;2.70;;;4.20;90.50;;;;;;4164961;28;20186;-74
2022/04/05 06:46:27;;;;;;;4.93;2.47;;;4.30;90.00;;;;;;4164908;28;20469;-74
2022/04/05 06:48:28;;;;;;;4.53;2.80;;;4.40;89.80;;;;;;4164955;28;20183;-73
2022/04/05 06:50:29;;;;;;;5.23;3.70;;;4.50;89.40;;;;;;4165002;28;20497;-73
2022/04/05 06:52:30;;;;;;;4.53;2.37;;;4.50;88.80;;;;;;4146688;28;20184;-73
2022/04/05 06:54:30;;;;;;;5.97;3.73;;;4.40;89.80;;;;;;4164945;28;20655;-73
2022/04/05 06:56:31;;;;;;;5.40;2.50;;;4.30;90.40;;;;;;4164066;28;20214;-73
2022/04/05 06:58:32;;;;;;;4.70;2.87;;;4.40;90.20;;;;;;4163608;28;20685;-73
2022/04/05 07:00:33;;;;;;;5.93;2.57;;;4.50;89.40;;;;;;4163377;28;20195;-74
2022/04/05 07:02:34;;;;;;;3.77;2.73;;;4.50;90.20;;;;;;4164142;28;20188;-74
2022/04/05 07:04:36;;;;;;;4.57;2.70;;;4.60;89.30;;;;;;4163251;28;20828;-74
2022/04/05 07:06:36;;;;;;;4.67;2.80;;;4.70;88.70;;;;;;4163167;28;20461;-73
2022/04/05 07:08:37;;;;;;;5.10;2.87;;;4.80;89.90;;;;;;4164585;28;20444;-74
2022/04/05 07:10:38;;;;;;;4.30;2.73;;;4.70;89.80;;;;;;4164691;28;20188;-73
2022/04/05 07:12:39;;;;;;;6.87;3.03;;;4.60;90.00;;;;;;4163955;28;20279;-73
2022/04/05 07:14:40;;;;;;;4.43;2.57;;;4.70;90.40;;;;;;4163283;28;20608;-74
2022/04/05 07:16:40;;;;;;;4.73;2.70;;;4.80;89.30;;;;;;4163264;28;20254;-73
2022/04/05 07:18:41;;;;;;;3.23;2.47;;;4.90;89.50;;;;;;4163614;28;20425;-74
2022/04/05 07:20:42;;;;;;;3.00;2.17;;;5.10;89.60;;;;;;4164712;28;20190;-73
2022/04/05 07:22:48;;;;;;;4.90;2.50;;;5.00;89.90;;;;;;4162719;28;20187;-74
2022/04/05 07:24:49;;;;;;;2.73;2.10;;;5.30;89.40;;;;;;4163366;28;20557;-74
2022/04/05 07:26:49;;;;;;;4.20;2.43;;;5.20;89.50;;;;;;4146830;28;20502;-74
2022/04/05 07:28:50;;;;;;;6.07;2.83;;;5.20;90.10;;;;;;4163133;28;20189;-74
2022/04/05 07:30:51;;;;;;;5.43;3.23;;;5.20;90.10;;;;;;4164443;28;20196;-74
2022/04/05 07:32:52;;;;;;;4.37;2.77;;;5.30;90.30;;;;;;4163630;28;20682;-73
2022/04/05 07:34:52;;;;;;;4.70;2.23;;;5.20;90.30;;;;;;4162783;28;20665;-73
2022/04/05 07:36:53;;;;;;;3.73;2.80;;;5.20;90.60;;;;;;4163020;28;20239;-73
2022/04/05 07:38:53;;;;;;;7.30;2.30;;;5.40;90.00;;;;;;4163032;28;20192;-73
2022/04/05 07:40:54;;;;;;;3.37;2.57;;;5.40;90.00;;;;;;4164321;28;20199;-73
2022/04/05 07:42:55;;;;;;;4.53;2.77;;;5.50;89.80;;;;;;4163624;28;20188;-73
2022/04/05 07:44:55;;;;;;;3.70;2.30;;;5.40;91.00;;;;;;4163527;28;20242;-73
2022/04/05 07:46:56;;;;;;;5.00;2.90;;;5.40;90.90;;;;;;4163997;28;20648;-73
2022/04/05 07:48:57;;;;;;;5.30;2.70;;;5.50;90.90;;;;;;4163007;28;20601;-74
2022/04/05 07:50:57;;;;;;;6.03;3.13;;;5.50;90.60;;;;;;4163960;28;20188;-73
2022/04/05 07:52:58;;;;;;;3.20;2.43;;;5.60;90.20;;;;;;4162301;28;20622;-73
2022/04/05 07:54:59;;;;;;;6.10;2.80;;;5.60;90.40;;;;;;4163741;28;20197;-73
2022/04/05 07:57:02;;;;;;;3.73;2.53;;;5.60;90.80;;;;;;4163420;28;20310;-74
2022/04/05 07:59:02;;;;;;;3.53;2.23;;;5.60;90.80;;;;;;4156812;28;20454;-75
2022/04/05 08:01:03;;;;;;;5.97;3.43;;;5.70;90.90;;;;;;4157210;28;21305;-73
2022/04/05 08:03:04;;;;;;;2.60;2.10;;;5.70;91.40;;;;;;4159893;28;21012;-73
2022/04/05 08:05:05;;;;;;;5.03;2.77;;;5.90;91.30;;;;;;4158880;28;20279;-74
2022/04/05 08:07:07;;;;;;;2.83;2.30;;;6.10;90.10;;;;;;4159422;28;20865;-74
2022/04/05 08:09:07;;;;;;;3.80;2.20;;;6.20;88.10;;;;;;4160581;28;20847;-74
2022/04/05 08:11:08;;;;;;;3.13;2.30;;;6.10;88.20;;;;;;4159030;28;20497;-75
2022/04/05 08:13:09;;;;;;;3.80;2.37;;;6.00;89.10;;;;;;4157925;28;20193;-74
2022/04/05 08:15:18;;;;;;;2.70;2.00;;;6.20;89.60;;;;;;4160231;28;20223;-75
2022/04/05 08:17:19;;;;;;;3.67;2.17;;;6.30;86.60;;;;;;4159893;28;20227;-73
2022/04/05 08:19:20;;;;;;;2.67;2.20;;;6.20;87.30;;;;;;4152672;28;20993;-74
2022/04/05 08:21:20;;;;;;;3.50;2.33;;;6.30;86.00;;;;;;4158250;28;20660;-74
2022/04/05 08:23:21;;;;;;;4.07;2.60;;;6.30;85.80;;;;;;4156628;28;20687;-75
2022/04/05 08:25:22;;;;;;;3.13;2.30;;;6.40;85.30;;;;;;4170366;28;20235;-75
2022/04/05 08:27:23;;;;;;;5.00;2.40;;;6.30;86.20;;;;;;4158697;28;20196;-72
2022/04/05 08:29:23;;;;;;;4.93;2.20;;;6.20;85.80;;;;;;4158237;28;20189;-74
2022/04/05 08:31:24;;;;;;;3.87;2.20;;;6.40;85.50;;;;;;4158087;28;20585;-73
2022/04/05 08:33:26;;;;;;;3.73;2.30;;;6.50;84.90;;;;;;4158554;28;21013;-73
2022/04/05 08:35:26;;;;;;;4.10;2.20;;;6.50;84.70;;;;;;4158371;28;20957;-72
2022/04/05 08:37:27;;;;;;;5.70;2.20;;;6.40;85.80;;;;;;4160097;28;20471;-72
2022/04/05 08:39:28;;;;;;;2.97;2.33;;;6.60;83.60;;;;;;4160125;28;20212;-73
2022/04/05 08:41:29;;;;;;;2.93;2.03;;;6.50;84.00;;;;;;4158853;28;20266;-73
2022/04/05 08:43:30;;;;;;;3.60;2.20;;;6.80;83.90;;;;;;4158546;28;20182;-72
2022/04/05 08:45:31;;;;;;;4.60;2.10;;;6.80;83.20;;;;;;4158237;28;20424;-73
2022/04/05 08:47:34;;;;;;;4.63;2.13;;;7.00;83.20;;;;;;4159470;28;20640;-71
2022/04/05 08:49:34;;;;;;;2.23;1.70;;;7.30;82.30;;;;;;4161028;28;20649;-73
2022/04/05 08:51:35;;;;;;;3.57;2.10;;;7.10;81.40;;;;;;4155953;28;20459;-71
2022/04/05 08:53:38;;;;;;;2.80;2.10;;;7.00;82.00;;;;;;4164492;28;20188;-71
2022/04/05 08:55:39;;;;;;;2.90;2.07;;;7.30;81.30;;;;;;4160884;28;20227;-71
2022/04/05 08:57:40;;;;;;;4.43;2.30;;;7.40;80.60;;;;;;4167099;28;20265;-71
2022/04/05 08:59:40;;;;;;;3.50;2.30;;;7.70;78.80;;;;;;4172422;28;20331;-72
2022/04/05 09:01:42;;;;;;;3.77;2.40;;;7.70;78.30;;;;;;4166597;28;20201;-70
2022/04/05 09:03:42;;;;;;;3.53;2.27;;;7.70;77.80;;;;;;4172350;28;20175;-75
2022/04/05 09:05:44;;;;;;;3.60;2.00;;;7.90;77.50;;;;;;4165938;28;20561;-73
2022/04/05 09:07:47;;;;;;;2.47;2.13;;;7.80;77.90;;;;;;4172047;28;20182;-71
2022/04/05 09:10:13;;;;;;;4.30;2.73;;;7.70;77.40;;;;;;4168016;28;20427;-78
2022/04/05 09:12:17;;;;;;;3.00;2.33;;;7.50;79.00;;;;;;4168668;28;20189;-75
2022/04/05 09:14:26;;;;;;;3.97;2.40;;;7.30;80.00;;;;;;4170611;28;21043;-75
2022/04/05 09:16:32;;;;;;;3.03;2.10;;;7.70;79.50;;;;;;4166268;28;20471;-75
2022/04/05 09:18:39;;;;;;;3.20;2.17;;;7.50;78.80;;;;;;4172782;28;20495;-72
2022/04/05 09:20:48;;;;;;;3.20;2.23;;;7.50;79.20;;;;;;4163904;28;20433;-74
2022/04/05 09:22:49;;;;;;;3.50;2.00;;;7.40;79.80;;;;;;4161753;28;20434;-72
2022/04/05 09:24:49;;;;;;;3.67;2.40;;;7.60;78.60;;;;;;4174936;28;20469;-73
2022/04/05 09:26:50;;;;;;;3.83;2.10;;;7.80;78.50;;;;;;4164039;28;20205;-73
2022/04/05 09:28:51;;;;;;;3.03;2.20;;;7.80;77.80;;;;;;4176315;28;20189;-74
2022/04/05 09:30:57;;;;;;;3.13;2.50;;;7.80;78.70;;;;;;4163726;28;20233;-70
2022/04/05 09:32:59;;;;;;;4.63;2.30;;;8.30;75.80;;;;;;4176147;28;20207;-78
2022/04/05 09:35:00;;;;;;;3.90;2.17;;;8.70;76.40;;;;;;4161103;28;20183;-76
2022/04/05 09:37:08;;;;;;;3.07;2.23;;;8.60;73.10;;;;;;4177950;28;20241;-79
2022/04/05 09:39:16;;;;;;;3.60;2.23;;;9.10;72.70;;;;;;4165071;28;20159;-78
2022/04/05 09:41:23;;;;;;;3.43;2.07;;;9.60;71.00;;;;;;4173939;28;20176;-78
2022/04/05 09:43:24;;;;;;;5.30;2.60;;;9.10;72.70;;;;;;4156643;28;20193;-78
2022/04/05 09:45:57;;;;;;;3.30;2.20;;;9.20;71.20;;;;;;4177167;28;20183;-78
2022/04/05 09:48:05;;;;;;;4.27;2.40;;;8.70;75.70;;;;;;4149062;28;20242;-74
2022/04/05 09:50:06;;;;;;;3.67;2.13;;;9.20;73.00;;;;;;4170316;28;20736;-74
2022/04/05 09:52:30;;;;;;;3.00;2.23;;;9.20;72.70;;;;;;4169844;28;20596;-74
2022/04/05 09:54:34;;;;;;;3.70;2.70;;;9.20;73.80;;;;;;4163249;28;20545;-74
2022/04/05 09:56:40;;;;;;;2.47;1.90;;;8.50;77.80;;;;;;4177036;28;20747;-74
2022/04/05 09:58:53;;;;;;;3.47;2.10;;;8.90;75.60;;;;;;4168471;28;20189;-74
2022/04/05 10:01:08;;;;;;;2.33;1.80;;;8.70;77.10;;;;;;4178548;28;20187;-74
2022/04/05 10:03:09;;;;;;;2.87;2.00;;;9.00;76.10;;;;;;4164263;28;20562;-73
2022/04/05 10:05:10;;;;;;;3.97;2.00;;;8.90;75.70;;;;;;4180542;28;20183;-74
2022/04/05 10:07:11;;;;;;;2.50;2.03;;;8.50;78.00;;;;;;4165643;28;20231;-74
2022/04/05 10:09:13;;;;;;;5.07;3.23;;;8.30;80.60;;;;;;4179328;28;20187;-70
2022/04/05 10:11:14;;;;;;;2.47;1.90;;;8.70;80.40;;;;;;4164849;28;20207;-69
2022/04/05 10:13:15;;;;;;;3.67;2.50;;;9.00;76.80;;;;;;4180608;28;20549;-71
2022/04/05 10:15:16;;;;;;;3.93;2.17;;;9.00;77.20;;;;;;4167645;28;20193;-72
2022/04/05 10:17:19;;;;;;;3.40;2.27;;;9.00;77.50;;;;;;4171421;28;20215;-73
2022/04/05 10:19:22;;;;;;;3.00;2.10;;;9.70;76.30;;;;;;4179932;28;20194;-76
2022/04/05 10:21:27;;;;;;;2.90;2.50;;;9.90;73.00;;;;;;4162848;28;20777;-74
2022/04/05 10:23:29;;;;;;;3.43;2.10;;;9.50;76.20;;;;;;4163430;28;20240;-73
2022/04/05 10:25:30;;;;;;;4.03;2.27;;;9.50;76.60;;;;;;4164865;28;20208;-73
2022/04/05 10:27:32;;;;;;;3.07;2.20;;;9.60;75.50;;;;;;4161704;28;20216;-76
2022/04/05 10:29:33;;;;;;;3.87;2.23;;;10.20;75.40;;;;;;4163771;28;20196;-72
2022/04/05 10:31:45;;;;;;;3.30;2.10;;;10.60;71.30;;;;;;4161919;28;20285;-71
2022/04/05 10:34:18;;;;;;;2.60;2.30;;;10.40;71.50;;;;;;4167331;28;20249;-76
2022/04/05 10:36:23;;;;;;;2.33;2.13;;;9.80;74.30;;;;;;4157509;28;20727;-75
2022/04/05 10:38:24;;;;;;;3.07;2.20;;;9.20;78.60;;;;;;4161136;28;20236;-76
2022/04/05 10:40:25;;;;;;;3.93;1.87;;;9.20;80.60;;;;;;4148554;28;20193;-76
2022/04/05 10:42:44;;;;;;;2.47;2.23;;;9.20;80.00;;;;;;4158719;28;20183;-72
2022/04/05 10:45:15;;;;;;;2.17;1.93;;;9.10;81.50;;;;;;4157952;28;20197;-72